Time;durP1;ratioP1;P1;durP2;ratioP2;P2;SDS_P1;SDS_P2;PMS_P1;PMS_P2;Temp;Humidity;BMP_temperature;BMP_pressure;BME280_temperature;BME280_humidity;BME280_pressure;Samples;Min_cycle;Max_cycle;Signal;HPM_P1;HPM_P2
2022/02/09 00:04:35;;;;;;;4.07;2.15;;;8.30;99.90;;;;;;5070941;28;20516;-67
2022/02/09 00:07:05;;;;;;;4.18;1.88;;;8.30;99.90;;;;;;5110700;28;20050;-67
2022/02/09 00:09:31;;;;;;;6.82;2.38;;;8.40;99.90;;;;;;5111958;28;20419;-66
2022/02/09 00:14:42;;;;;;;6.90;2.43;;;8.30;99.90;;;;;;5113654;28;20020;-67
2022/02/09 00:17:38;;;;;;;9.10;3.22;;;8.30;99.90;;;;;;5111761;28;20028;-67
2022/02/09 00:41:01;;;;;;;4.60;1.83;;;8.30;99.90;;;;;;5117166;28;20106;-66
2022/02/09 01:55:26;;;;;;;4.20;1.50;;;8.30;99.90;;;;;;5115670;28;20100;-64
2022/02/09 01:56:52;;;;;;;2.50;1.15;;;8.50;99.90;;;;;;5115192;28;20035;-64
2022/02/09 01:59:18;;;;;;;2.88;1.88;;;8.50;99.90;;;;;;5115071;27;20024;-64
2022/02/09 02:01:44;;;;;;;3.13;1.42;;;8.40;99.90;;;;;;5114984;28;20476;-64
2022/02/09 02:04:09;;;;;;;2.87;1.40;;;8.50;99.90;;;;;;5114933;28;20110;-64
2022/02/09 02:06:35;;;;;;;3.10;1.47;;;8.50;99.90;;;;;;5115066;28;20027;-64
2022/02/09 02:09:03;;;;;;;2.90;1.42;;;8.40;99.90;;;;;;5113685;28;20030;-64
2022/02/09 02:11:34;;;;;;;4.50;1.98;;;8.40;99.90;;;;;;5115531;28;20027;-64
2022/02/09 02:16:36;;;;;;;3.00;1.20;;;8.40;99.90;;;;;;5116251;28;20375;-63
2022/02/09 02:19:16;;;;;;;2.45;1.30;;;8.40;99.90;;;;;;5116284;28;20468;-63
2022/02/09 02:22:13;;;;;;;3.72;1.40;;;8.40;99.90;;;;;;5114894;28;20106;-64
2022/02/09 02:27:53;;;;;;;2.80;1.42;;;8.40;99.90;;;;;;5114967;28;20115;-64
2022/02/09 03:07:45;;;;;;;4.38;2.00;;;8.50;99.90;;;;;;5113867;28;20525;-63
2022/02/09 03:08:33;;;;;;;4.03;2.05;;;8.50;99.90;;;;;;5113605;28;20046;-64
2022/02/09 03:11:11;;;;;;;4.03;1.98;;;8.50;99.90;;;;;;5113617;28;20027;-63
2022/02/09 03:13:48;;;;;;;3.78;2.10;;;8.50;99.90;;;;;;5112326;28;20387;-63
2022/02/09 03:16:16;;;;;;;4.07;2.20;;;8.50;99.90;;;;;;5114040;28;20024;-63
2022/02/09 03:19:05;;;;;;;4.80;2.20;;;8.50;99.90;;;;;;5113577;28;20027;-63
2022/02/09 03:24:22;;;;;;;4.53;2.03;;;8.50;99.90;;;;;;5113739;28;20031;-64
2022/02/09 03:27:05;;;;;;;3.50;2.17;;;8.50;99.90;;;;;;5112192;28;20047;-64
2022/02/09 03:46:19;;;;;;;4.22;2.55;;;8.50;99.90;;;;;;5114075;28;20034;-64
2022/02/09 03:58:36;;;;;;;7.40;2.27;;;8.50;99.90;;;;;;5117794;28;20019;-64
2022/02/09 04:01:03;;;;;;;3.53;2.50;;;8.50;99.90;;;;;;5115877;28;20073;-64
2022/02/09 04:03:28;;;;;;;;;;;8.50;99.90;;;;;;5117646;28;20019;-64
2022/02/09 04:05:54;;;;;;;8.07;2.40;;;8.50;99.90;;;;;;5117228;28;19934;-64
2022/02/09 04:08:26;;;;;;;5.20;2.70;;;8.50;99.90;;;;;;5117728;28;20435;-65
2022/02/09 04:11:04;;;;;;;4.82;2.33;;;8.50;99.90;;;;;;5117766;28;20486;-64
2022/02/09 04:13:59;;;;;;;4.82;2.08;;;8.50;99.90;;;;;;5117148;28;20405;-64
2022/02/09 04:16:38;;;;;;;5.28;2.50;;;8.50;99.90;;;;;;5117084;28;20403;-64
2022/02/09 04:19:20;;;;;;;4.68;2.28;;;8.50;99.90;;;;;;5117175;28;20020;-64
2022/02/09 04:38:19;;;;;;;6.38;2.55;;;8.30;99.90;;;;;;5116754;28;20038;-64
2022/02/09 04:48:51;;;;;;;5.35;2.20;;;8.30;99.90;;;;;;5116662;28;20072;-64
2022/02/09 04:51:26;;;;;;;4.95;2.53;;;8.30;99.90;;;;;;5116204;28;20024;-64
2022/02/09 05:28:09;;;;;;;7.55;3.13;;;8.20;99.90;;;;;;5117338;28;20077;-64
2022/02/09 05:30:34;;;;;;;6.65;3.42;;;8.10;99.90;;;;;;5115547;28;20030;-65
2022/02/09 05:33:00;;;;;;;6.63;3.80;;;8.20;99.90;;;;;;5116222;28;20370;-65
2022/02/09 05:35:26;;;;;;;8.52;4.03;;;8.10;99.90;;;;;;5115920;28;20261;-69
2022/02/09 05:37:54;;;;;;;8.88;3.95;;;8.00;99.90;;;;;;5116005;27;20078;-67
2022/02/09 05:40:20;;;;;;;9.00;4.28;;;8.00;99.90;;;;;;5115737;28;20495;-67
2022/02/09 05:42:46;;;;;;;14.23;4.88;;;8.00;99.90;;;;;;5115787;28;20061;-67
2022/02/09 05:45:13;;;;;;;10.50;4.57;;;7.90;99.90;;;;;;5115780;28;20045;-66
2022/02/09 05:53:08;;;;;;;12.55;4.22;;;7.80;99.90;;;;;;5116104;28;20388;-66
2022/02/09 05:55:46;;;;;;;9.48;4.47;;;7.80;99.90;;;;;;5115746;28;20105;-67
2022/02/09 05:58:22;;;;;;;11.95;5.00;;;7.80;99.90;;;;;;5115375;28;20023;-65
2022/02/09 06:00:48;;;;;;;9.65;4.78;;;7.80;99.90;;;;;;5115642;28;20020;-67
2022/02/09 06:03:17;;;;;;;10.35;5.13;;;7.80;99.90;;;;;;5115384;28;20027;-63
2022/02/09 06:05:44;;;;;;;11.98;4.43;;;7.80;99.90;;;;;;5115473;28;20034;-63
2022/02/09 06:08:10;;;;;;;13.45;4.95;;;7.80;99.90;;;;;;5116065;28;20043;-63
2022/02/09 06:10:36;;;;;;;13.90;4.50;;;7.70;99.90;;;;;;5115440;28;20020;-63
2022/02/09 06:13:19;;;;;;;10.80;4.53;;;7.70;99.90;;;;;;5114234;28;20418;-63
2022/02/09 06:16:13;;;;;;;12.13;4.50;;;7.70;99.90;;;;;;5114898;27;20051;-63
2022/02/09 06:21:23;;;;;;;9.65;3.50;;;7.70;99.90;;;;;;5114609;28;20073;-63
2022/02/09 06:23:49;;;;;;;12.77;4.87;;;7.60;99.90;;;;;;5114624;28;20028;-62
2022/02/09 06:26:15;;;;;;;9.10;3.60;;;7.60;99.90;;;;;;5114203;28;20063;-63
2022/02/09 06:28:41;;;;;;;8.55;3.80;;;7.60;99.90;;;;;;5115573;27;20023;-63
2022/02/09 06:31:07;;;;;;;9.33;3.90;;;7.50;99.90;;;;;;5115681;28;20032;-64
2022/02/09 06:33:32;;;;;;;12.48;3.75;;;7.50;99.90;;;;;;5115016;28;20626;-64
2022/02/09 06:36:00;;;;;;;10.73;3.73;;;7.50;99.90;;;;;;5114341;28;20106;-63
2022/02/09 06:38:27;;;;;;;11.88;4.50;;;7.40;99.90;;;;;;5115377;28;20028;-64
2022/02/09 06:40:55;;;;;;;10.32;3.78;;;7.40;99.90;;;;;;5115263;28;20523;-62
2022/02/09 06:43:21;;;;;;;11.52;4.03;;;7.40;99.90;;;;;;5114467;28;20027;-62
2022/02/09 06:45:47;;;;;;;10.40;3.53;;;7.50;99.90;;;;;;5114021;28;20099;-61
2022/02/09 06:48:15;;;;;;;14.38;3.97;;;7.40;99.90;;;;;;5114093;28;20065;-63
2022/02/09 06:50:47;;;;;;;8.57;3.65;;;7.30;99.90;;;;;;5114529;28;20030;-63
2022/02/09 06:55:51;;;;;;;8.30;3.45;;;7.10;99.90;;;;;;5114201;28;20023;-63
2022/02/09 06:58:23;;;;;;;11.38;4.05;;;7.20;99.90;;;;;;5114027;28;20023;-63
2022/02/09 07:00:48;;;;;;;15.13;5.22;;;7.20;99.90;;;;;;5115318;28;20026;-64
2022/02/09 07:03:14;;;;;;;11.90;4.30;;;7.20;99.90;;;;;;5113701;28;20019;-65
2022/02/09 07:05:40;;;;;;;8.07;3.80;;;7.20;99.90;;;;;;5113738;28;20046;-63
2022/02/09 07:08:06;;;;;;;10.20;4.10;;;7.20;99.90;;;;;;5113778;28;20042;-63
2022/02/09 07:10:32;;;;;;;8.05;4.55;;;7.10;99.90;;;;;;5113918;28;20043;-62
2022/02/09 07:12:58;;;;;;;11.63;4.13;;;7.10;99.90;;;;;;5113828;28;20030;-64
2022/02/09 07:15:31;;;;;;;13.32;3.97;;;7.00;99.90;;;;;;5114462;28;20035;-62
2022/02/09 07:17:59;;;;;;;8.05;3.28;;;7.00;99.90;;;;;;5113167;28;20032;-62
2022/02/09 07:20:35;;;;;;;14.57;4.75;;;7.00;99.90;;;;;;5114915;28;20367;-62
2022/02/09 07:23:02;;;;;;;8.52;3.78;;;6.90;99.90;;;;;;5116290;28;20016;-63
2022/02/09 07:25:32;;;;;;;;;;;6.80;99.90;;;;;;5115332;28;20356;-63
2022/02/09 07:28:05;;;;;;;9.40;4.05;;;6.80;99.90;;;;;;5113246;28;19910;-62
2022/02/09 07:30:30;;;;;;;11.23;3.78;;;6.70;99.90;;;;;;5114344;28;20016;-63
2022/02/09 07:33:01;;;;;;;7.70;3.67;;;6.70;99.90;;;;;;5112507;28;20535;-63
2022/02/09 07:35:28;;;;;;;9.57;3.60;;;6.70;99.90;;;;;;5113834;28;20031;-63
2022/02/09 07:37:53;;;;;;;11.70;3.78;;;6.60;99.90;;;;;;5113793;28;20031;-63
2022/02/09 07:40:19;;;;;;;10.53;3.80;;;6.60;99.90;;;;;;5112541;28;20032;-63
2022/02/09 07:42:49;;;;;;;7.93;3.40;;;6.60;99.90;;;;;;5113777;28;20449;-63
2022/02/09 07:53:07;;;;;;;13.02;4.28;;;6.60;99.90;;;;;;5115012;28;20047;-62
2022/02/09 07:55:34;;;;;;;13.60;5.20;;;6.50;99.90;;;;;;5113629;28;20152;-63
2022/02/09 07:58:00;;;;;;;10.70;4.60;;;6.50;99.90;;;;;;5113458;28;20020;-62
2022/02/09 08:00:26;;;;;;;10.75;5.05;;;6.40;99.90;;;;;;5113212;28;20099;-62
2022/02/09 08:02:52;;;;;;;15.90;5.53;;;6.40;99.90;;;;;;5113254;28;20032;-61
2022/02/09 08:05:19;;;;;;;16.83;5.82;;;6.40;99.90;;;;;;5113182;28;20057;-63
2022/02/09 08:07:45;;;;;;;18.92;6.10;;;6.50;99.90;;;;;;5113167;28;20067;-62
2022/02/09 08:10:24;;;;;;;19.20;6.00;;;6.50;99.90;;;;;;5113640;28;20507;-62
2022/02/09 08:31:23;;;;;;;14.23;5.80;;;6.50;99.90;;;;;;5113050;28;20019;-63
2022/02/09 08:33:48;;;;;;;15.73;5.72;;;6.50;99.90;;;;;;5112661;28;20020;-63
2022/02/09 08:36:14;;;;;;;;;;;6.50;99.90;;;;;;5113347;28;20031;-63
2022/02/09 08:38:42;;;;;;;19.85;5.70;;;6.60;99.90;;;;;;5112760;28;19912;-63
2022/02/09 08:41:09;;;;;;;19.13;9.25;;;6.60;99.90;;;;;;5115325;28;20456;-64
2022/02/09 08:43:34;;;;;;;17.85;6.22;;;6.60;99.90;;;;;;5115277;28;20027;-63
2022/02/09 08:46:00;;;;;;;13.60;6.17;;;6.70;99.90;;;;;;5119091;28;20379;-62
2022/02/09 08:48:26;;;;;;;15.73;5.53;;;6.80;99.90;;;;;;5116678;28;20027;-70
2022/02/09 08:50:52;;;;;;;13.43;6.13;;;6.80;99.90;;;;;;5116570;28;20414;-68
2022/02/09 08:53:20;;;;;;;15.07;5.45;;;6.80;99.90;;;;;;5114870;28;20020;-68
2022/02/09 08:55:46;;;;;;;16.65;5.63;;;6.80;99.90;;;;;;5116237;28;20495;-69
2022/02/09 08:58:14;;;;;;;;;;;6.80;99.90;;;;;;5115863;28;20467;-68
2022/02/09 09:00:40;;;;;;;13.52;5.03;;;6.90;99.90;;;;;;5116321;28;19908;-68
2022/02/09 09:05:59;;;;;;;13.18;5.00;;;6.90;99.90;;;;;;5115907;28;20027;-68
2022/02/09 09:08:45;;;;;;;15.35;6.10;;;7.00;99.90;;;;;;5116268;28;20353;-68
2022/02/09 09:31:00;;;;;;;11.88;4.70;;;7.40;99.90;;;;;;5116434;28;20103;-69
2022/02/09 09:58:09;;;;;;;12.98;3.55;;;12.70;99.90;;;;;;5115271;28;20043;-67
2022/02/09 10:34:03;;;;;;;8.20;4.07;;;19.70;77.60;;;;;;5114915;28;20051;-67
2022/02/09 10:36:30;;;;;;;9.35;4.75;;;20.60;76.10;;;;;;5113099;28;20482;-68
2022/02/09 10:39:12;;;;;;;7.30;3.22;;;22.00;72.50;;;;;;5112922;28;20039;-64
2022/02/09 10:41:53;;;;;;;5.10;2.78;;;23.60;67.60;;;;;;5114242;28;20024;-64
2022/02/09 10:44:25;;;;;;;6.88;3.63;;;22.80;65.10;;;;;;5113981;28;20068;-63
2022/02/09 10:46:56;;;;;;;7.60;3.20;;;22.00;66.80;;;;;;5113927;28;20023;-64
2022/02/09 10:49:27;;;;;;;7.68;2.97;;;21.80;67.10;;;;;;5114196;28;20032;-63
2022/02/09 10:54:26;;;;;;;4.63;2.60;;;22.50;65.70;;;;;;5114138;28;20016;-65
2022/02/09 10:56:55;;;;;;;6.95;3.10;;;23.40;63.50;;;;;;5114293;28;20026;-66
2022/02/09 10:59:26;;;;;;;6.85;3.58;;;24.10;61.00;;;;;;5113987;28;20011;-66
2022/02/09 11:01:54;;;;;;;9.40;4.10;;;24.00;60.50;;;;;;5114189;28;20015;-66
2022/02/09 11:04:20;;;;;;;8.18;2.90;;;23.90;60.40;;;;;;5113085;28;20034;-67
2022/02/09 11:06:50;;;;;;;6.75;3.00;;;24.00;60.00;;;;;;5113711;28;20395;-66
2022/02/09 11:09:21;;;;;;;8.43;3.33;;;24.00;59.00;;;;;;5113613;28;20034;-67
2022/02/09 11:11:52;;;;;;;5.88;3.17;;;23.10;59.70;;;;;;5114185;28;20084;-67
2022/02/09 11:14:23;;;;;;;6.78;3.10;;;22.10;62.10;;;;;;5113811;28;20016;-66
2022/02/09 11:16:56;;;;;;;6.25;2.95;;;20.80;62.90;;;;;;5113594;28;20420;-67
2022/02/09 11:19:35;;;;;;;7.95;3.42;;;18.70;66.70;;;;;;5113521;28;20468;-66
2022/02/09 11:22:10;;;;;;;9.48;4.03;;;16.60;74.00;;;;;;5113343;28;20019;-66
2022/02/09 11:24:43;;;;;;;9.23;3.63;;;15.00;80.50;;;;;;5115537;28;20038;-66
2022/02/09 11:30:00;;;;;;;8.98;3.25;;;12.90;91.60;;;;;;5112847;28;20383;-65
2022/02/09 11:32:41;;;;;;;9.52;3.47;;;12.30;94.20;;;;;;5112061;28;20045;-66
2022/02/09 11:41:01;;;;;;;11.07;3.25;;;11.50;99.40;;;;;;5113203;28;20393;-66
2022/02/09 11:52:01;;;;;;;9.40;3.40;;;11.50;99.80;;;;;;5113891;28;20020;-66
2022/02/09 12:11:38;;;;;;;8.43;3.65;;;11.40;99.90;;;;;;5113284;28;20039;-70
2022/02/09 12:19:34;;;;;;;9.10;3.67;;;11.40;99.90;;;;;;5121735;28;20054;-70
2022/02/09 12:24:31;;;;;;;9.80;3.77;;;11.50;99.90;;;;;;5117166;28;20015;-70
2022/02/09 12:27:05;;;;;;;6.15;2.97;;;11.50;99.90;;;;;;5118599;28;20023;-69
2022/02/09 12:29:38;;;;;;;8.98;3.20;;;11.40;99.90;;;;;;5117954;28;20016;-70
2022/02/09 12:32:16;;;;;;;7.60;3.17;;;11.50;99.90;;;;;;5120439;28;20027;-70
2022/02/09 12:34:57;;;;;;;12.23;3.55;;;11.60;99.50;;;;;;5118744;28;20485;-70
2022/02/09 12:37:25;;;;;;;7.38;3.05;;;11.60;98.90;;;;;;5119033;28;20435;-69
2022/02/09 12:40:15;;;;;;;10.50;3.35;;;11.70;98.30;;;;;;5118841;28;20034;-71
2022/02/09 12:42:44;;;;;;;5.00;2.58;;;11.70;97.30;;;;;;5116933;27;20376;-69
2022/02/09 12:45:12;;;;;;;5.80;2.60;;;11.80;97.20;;;;;;5115086;28;20035;-69
2022/02/09 12:47:47;;;;;;;8.05;2.83;;;11.90;96.60;;;;;;5115409;28;20024;-70
2022/02/09 12:50:20;;;;;;;6.40;2.22;;;12.00;95.80;;;;;;5116249;28;20024;-69
2022/02/09 12:52:47;;;;;;;4.57;2.22;;;12.00;95.40;;;;;;5114995;28;20037;-69
2022/02/09 12:55:27;;;;;;;5.43;2.58;;;12.00;94.80;;;;;;5116700;28;20019;-71
2022/02/09 12:57:57;;;;;;;4.80;2.75;;;12.10;94.90;;;;;;5114562;28;20030;-68
2022/02/09 13:00:28;;;;;;;7.30;2.38;;;12.00;94.60;;;;;;5114647;28;20043;-67
2022/02/09 13:02:57;;;;;;;5.35;2.83;;;12.10;94.90;;;;;;5116184;28;20015;-68
2022/02/09 13:05:23;;;;;;;4.97;2.45;;;12.10;95.20;;;;;;5116052;28;20023;-68
2022/02/09 13:07:59;;;;;;;8.73;2.55;;;12.20;94.30;;;;;;5116050;28;20028;-68
2022/02/09 13:10:28;;;;;;;7.40;2.67;;;12.30;94.50;;;;;;5116273;28;20024;-68
2022/02/09 13:12:56;;;;;;;7.18;2.40;;;12.20;94.30;;;;;;5116746;28;20039;-67
2022/02/09 13:15:29;;;;;;;8.30;2.42;;;12.30;94.60;;;;;;5116169;28;20309;-68
2022/02/09 13:18:17;;;;;;;6.85;2.60;;;12.30;94.30;;;;;;5114310;28;20026;-68
2022/02/09 14:10:17;;;;;;;7.88;2.50;;;12.40;96.60;;;;;;5115866;28;20043;-67
2022/02/09 14:53:01;;;;;;;5.25;2.33;;;12.00;99.80;;;;;;5114687;28;20027;-63
2022/02/09 14:55:47;;;;;;;3.38;2.17;;;12.00;99.80;;;;;;5113245;28;20484;-63
2022/02/09 14:58:15;;;;;;;4.93;2.10;;;12.00;99.90;;;;;;5114434;28;20384;-62
2022/02/09 15:01:21;;;;;;;6.03;2.10;;;11.90;99.90;;;;;;5112444;28;20015;-64
2022/02/09 15:11:51;;;;;;;3.08;1.70;;;11.80;99.90;;;;;;5113723;27;20430;-64
2022/02/09 15:14:29;;;;;;;4.78;1.95;;;11.70;99.90;;;;;;5113648;28;20019;-62
2022/02/09 15:19:38;;;;;;;7.05;3.15;;;11.70;99.90;;;;;;5116476;28;20033;-67
2022/02/09 15:22:07;;;;;;;5.60;2.10;;;11.70;99.90;;;;;;5118637;28;20015;-67
2022/02/09 15:24:39;;;;;;;5.30;2.55;;;11.70;99.90;;;;;;5116510;28;20521;-67
2022/02/09 15:27:07;;;;;;;4.50;1.98;;;11.70;99.90;;;;;;5115030;28;20023;-66
2022/02/09 15:29:37;;;;;;;4.97;2.10;;;11.60;99.90;;;;;;5115732;28;20481;-67
2022/02/09 15:32:07;;;;;;;6.53;2.30;;;11.60;99.90;;;;;;5114068;28;20027;-67
2022/02/09 15:34:42;;;;;;;4.35;1.90;;;11.60;99.90;;;;;;5114792;28;20024;-67
2022/02/09 15:40:08;;;;;;;9.88;3.20;;;11.60;99.90;;;;;;5104599;28;20040;-67
2022/02/09 15:56:21;;;;;;;4.28;2.20;;;11.50;99.90;;;;;;5117803;28;20040;-66
2022/02/09 16:22:56;;;;;;;8.68;3.83;;;11.20;99.90;;;;;;5117232;28;20486;-67
2022/02/09 16:44:16;;;;;;;5.22;2.08;;;11.00;99.90;;;;;;5061729;28;20033;-67
2022/02/09 16:44:39;;;;;;;5.82;2.25;;;10.80;99.90;;;;;;5116969;28;20084;-67
2022/02/09 16:47:14;;;;;;;8.43;2.25;;;10.80;99.90;;;;;;5117325;28;20026;-68
2022/02/09 16:50:27;;;;;;;4.47;2.10;;;10.70;99.90;;;;;;5117783;28;20046;-67
2022/02/09 16:52:37;;;;;;;5.25;2.90;;;10.70;99.90;;;;;;5108682;28;20480;-68
2022/02/09 16:55:34;;;;;;;11.00;4.55;;;10.60;99.90;;;;;;5117074;28;20028;-67
2022/02/09 17:19:34;;;;;;;4.35;2.30;;;10.30;99.90;;;;;;5116396;28;20031;-66
2022/02/09 17:22:00;;;;;;;6.90;2.53;;;10.40;99.90;;;;;;5116402;28;20023;-66
2022/02/09 17:24:26;;;;;;;17.50;8.65;;;10.40;99.90;;;;;;5115996;28;20020;-66
2022/02/09 17:26:53;;;;;;;5.22;2.38;;;10.30;99.90;;;;;;5115981;27;20540;-66
2022/02/09 17:29:30;;;;;;;4.93;2.45;;;10.30;99.90;;;;;;5115911;28;20016;-69
2022/02/09 17:35:25;;;;;;;7.17;2.97;;;10.30;99.90;;;;;;5116129;28;20441;-66
2022/02/09 17:37:35;;;;;;;6.75;3.28;;;10.20;99.90;;;;;;5106008;28;20303;-66
2022/02/09 17:53:45;;;;;;;5.22;3.08;;;10.10;99.90;;;;;;5115828;28;20076;-70
2022/02/09 17:56:17;;;;;;;7.25;3.00;;;10.00;99.90;;;;;;5114138;28;20023;-70
2022/02/09 17:58:50;;;;;;;7.32;3.30;;;10.00;99.90;;;;;;5114343;28;20549;-67
2022/02/09 18:01:21;;;;;;;5.65;2.88;;;9.90;99.90;;;;;;5115103;28;20047;-71
2022/02/09 18:03:48;;;;;;;5.85;2.78;;;9.80;99.90;;;;;;5113655;28;20016;-68
2022/02/09 18:06:55;;;;;;;10.07;3.60;;;9.80;99.90;;;;;;5115439;28;20484;-66
2022/02/09 18:09:13;;;;;;;5.65;2.83;;;9.80;99.90;;;;;;5112934;28;20036;-66
2022/02/09 18:26:44;;;;;;;9.38;2.95;;;9.40;99.90;;;;;;5114812;28;20403;-67
2022/02/09 18:33:24;;;;;;;6.07;3.20;;;9.20;99.90;;;;;;5114881;28;20076;-67
2022/02/09 19:00:05;;;;;;;6.13;2.97;;;8.80;99.90;;;;;;5071897;28;20020;-67
2022/02/09 19:02:57;;;;;;;6.60;3.80;;;8.80;99.90;;;;;;5103865;28;20084;-67
2022/02/09 19:05:39;;;;;;;8.30;3.15;;;8.70;99.90;;;;;;5112994;28;20102;-66
2022/02/09 19:19:09;;;;;;;7.30;3.30;;;8.60;99.90;;;;;;5115056;28;20055;-66
2022/02/09 19:29:55;;;;;;;8.03;4.27;;;8.40;99.90;;;;;;5113814;28;20488;-67
2022/02/09 19:46:05;;;;;;;7.90;4.13;;;8.10;99.90;;;;;;5114190;28;20030;-67
2022/02/09 19:48:37;;;;;;;12.80;4.80;;;8.10;99.90;;;;;;5114095;28;20047;-67
2022/02/09 19:56:10;;;;;;;12.55;6.07;;;8.10;99.90;;;;;;5113529;28;20019;-70
2022/02/09 20:01:35;;;;;;;9.77;5.00;;;8.00;99.90;;;;;;5112908;28;20028;-69
2022/02/09 20:04:01;;;;;;;9.07;4.65;;;8.00;99.90;;;;;;5115164;28;20047;-68
2022/02/09 20:06:27;;;;;;;;;;;8.00;99.90;;;;;;5114685;28;20016;-69
2022/02/09 20:08:52;;;;;;;12.70;5.07;;;7.90;99.90;;;;;;5115760;28;19934;-70
2022/02/09 20:11:19;;;;;;;11.67;5.60;;;7.90;99.90;;;;;;5114873;28;20031;-70
2022/02/09 20:13:50;;;;;;;8.73;4.57;;;7.90;99.90;;;;;;5114336;28;20031;-70
2022/02/09 20:16:19;;;;;;;10.77;5.10;;;7.90;99.90;;;;;;5113223;28;20035;-70
2022/02/09 20:18:52;;;;;;;9.85;4.93;;;8.10;99.90;;;;;;5114399;28;20027;-69
2022/02/09 20:21:21;;;;;;;7.97;4.68;;;7.90;99.90;;;;;;5112465;28;20368;-70
2022/02/09 20:23:48;;;;;;;10.60;4.40;;;7.80;99.90;;;;;;5113783;28;20048;-70
2022/02/09 20:26:14;;;;;;;12.02;5.25;;;7.60;99.90;;;;;;5113333;28;20019;-69
2022/02/09 20:28:45;;;;;;;10.85;5.35;;;7.60;99.90;;;;;;5113332;28;20031;-69
2022/02/09 20:31:16;;;;;;;12.57;5.38;;;7.50;99.90;;;;;;5113500;28;20392;-67
2022/02/09 20:33:48;;;;;;;7.78;4.60;;;7.50;99.90;;;;;;5112301;28;20027;-67
2022/02/09 20:36:16;;;;;;;10.23;4.53;;;7.40;99.90;;;;;;5116748;28;20034;-69
2022/02/09 20:38:44;;;;;;;9.27;4.68;;;7.40;99.90;;;;;;5116931;28;20023;-68
2022/02/09 20:41:12;;;;;;;9.57;4.30;;;7.40;99.90;;;;;;5117983;28;20030;-66
2022/02/09 20:43:45;;;;;;;9.38;5.22;;;7.40;99.90;;;;;;5116640;28;20027;-65
2022/02/09 20:46:12;;;;;;;9.32;5.28;;;7.30;99.90;;;;;;5116950;28;20032;-65
2022/02/09 20:48:38;;;;;;;10.35;4.85;;;7.30;99.90;;;;;;5116416;28;20019;-67
2022/02/09 20:51:04;;;;;;;12.07;5.30;;;7.30;99.90;;;;;;5118281;28;20053;-67
2022/02/09 20:53:30;;;;;;;10.73;5.60;;;7.30;99.90;;;;;;5116837;28;20043;-67
2022/02/09 20:55:56;;;;;;;9.80;5.22;;;7.30;99.90;;;;;;5115916;28;20488;-65
2022/02/09 20:58:23;;;;;;;11.50;5.03;;;7.30;99.90;;;;;;5117016;28;20027;-68
2022/02/09 21:00:55;;;;;;;11.80;5.65;;;7.20;99.90;;;;;;5116606;28;20027;-69
2022/02/09 21:06:35;;;;;;;10.00;4.93;;;7.10;99.90;;;;;;5116883;28;20023;-69
2022/02/09 21:11:52;;;;;;;10.02;5.45;;;7.00;99.90;;;;;;5116311;28;20032;-69
2022/02/09 21:27:29;;;;;;;10.60;5.60;;;6.70;99.90;;;;;;5115906;28;20357;-69
2022/02/09 21:33:05;;;;;;;11.82;6.40;;;6.70;99.90;;;;;;5115977;28;20035;-69
2022/02/09 21:44:30;;;;;;;14.30;6.57;;;6.90;99.90;;;;;;5115886;28;20485;-69
2022/02/09 21:52:30;;;;;;;11.43;6.22;;;6.80;99.90;;;;;;5115761;28;20015;-69
2022/02/09 21:54:58;;;;;;;12.52;6.85;;;6.70;99.90;;;;;;5115154;28;20062;-69
2022/02/09 21:57:38;;;;;;;12.40;6.65;;;6.60;99.90;;;;;;5115061;28;20015;-69
2022/02/09 22:16:45;;;;;;;12.15;6.38;;;6.70;99.90;;;;;;5115191;28;20034;-69
2022/02/09 22:22:15;;;;;;;11.30;6.00;;;6.40;99.90;;;;;;5119113;28;20104;-69
2022/02/09 22:27:36;;;;;;;10.18;5.60;;;6.30;99.90;;;;;;5115525;28;20026;-70
2022/02/09 22:30:53;;;;;;;13.25;5.88;;;6.40;99.90;;;;;;5113377;28;20027;-70
2022/02/09 22:49:49;;;;;;;11.20;5.55;;;6.70;99.90;;;;;;5114887;28;20062;-70
2022/02/09 22:54:52;;;;;;;12.23;5.57;;;6.60;99.90;;;;;;5114373;28;20034;-69
2022/02/09 22:57:23;;;;;;;10.10;4.67;;;6.60;99.90;;;;;;5113265;28;20016;-69
2022/02/09 22:59:59;;;;;;;8.25;4.65;;;6.60;99.90;;;;;;5112028;28;20055;-70
2022/02/09 23:02:32;;;;;;;8.77;4.43;;;6.50;99.90;;;;;;5114041;28;20020;-70
2022/02/09 23:07:47;;;;;;;10.67;4.43;;;6.80;99.90;;;;;;5114589;28;20080;-70
2022/02/09 23:12:45;;;;;;;8.73;4.47;;;6.90;99.90;;;;;;5114700;28;20113;-69
2022/02/09 23:15:37;;;;;;;7.93;3.67;;;6.70;99.90;;;;;;5112769;28;20476;-69
2022/02/09 23:26:18;;;;;;;12.32;5.03;;;6.30;99.90;;;;;;5114909;28;20070;-69
